sensor_id;sensor_type;location;lat;lon;timestamp;P1;durP1;ratioP1;P2;durP2;ratioP2
54561;SDS011;40456;53.358;-1.486;2023-04-03T00:00:43;5.75;;;1.63;;
54561;SDS011;40456;53.358;-1.486;2023-04-03T00:03:08;4.00;;;1.67;;
54561;SDS011;40456;53.358;-1.486;2023-04-03T00:05:34;2.45;;;1.70;;
54561;SDS011;40456;53.358;-1.486;2023-04-03T00:08:00;2.95;;;1.48;;
54561;SDS011;40456;53.358;-1.486;2023-04-03T00:10:27;3.92;;;1.65;;
54561;SDS011;40456;53.358;-1.486;2023-04-03T00:12:53;4.63;;;1.85;;
54561;SDS011;40456;53.358;-1.486;2023-04-03T00:15:18;4.57;;;2.00;;
54561;SDS011;40456;53.358;-1.486;2023-04-03T00:17:44;3.90;;;1.60;;
54561;SDS011;40456;53.358;-1.486;2023-04-03T00:20:10;4.50;;;1.98;;
54561;SDS011;40456;53.358;-1.486;2023-04-03T00:22:36;3.50;;;1.50;;
54561;SDS011;40456;53.358;-1.486;2023-04-03T00:25:01;2.85;;;1.73;;
54561;SDS011;40456;53.358;-1.486;2023-04-03T00:27:27;3.63;;;1.90;;
54561;SDS011;40456;53.358;-1.486;2023-04-03T00:29:53;4.80;;;2.42;;
54561;SDS011;40456;53.358;-1.486;2023-04-03T00:32:18;5.72;;;2.33;;
54561;SDS011;40456;53.358;-1.486;2023-04-03T00:34:43;3.70;;;1.90;;
54561;SDS011;40456;53.358;-1.486;2023-04-03T00:37:09;3.97;;;2.05;;
54561;SDS011;40456;53.358;-1.486;2023-04-03T00:39:34;3.78;;;2.00;;
54561;SDS011;40456;53.358;-1.486;2023-04-03T00:42:00;4.50;;;2.20;;
54561;SDS011;40456;53.358;-1.486;2023-04-03T00:46:53;4.38;;;1.90;;
54561;SDS011;40456;53.358;-1.486;2023-04-03T00:49:19;4.07;;;1.80;;
54561;SDS011;40456;53.358;-1.486;2023-04-03T00:51:44;3.47;;;2.03;;
54561;SDS011;40456;53.358;-1.486;2023-04-03T00:54:10;3.45;;;1.88;;
54561;SDS011;40456;53.358;-1.486;2023-04-03T00:56:36;6.85;;;2.03;;
54561;SDS011;40456;53.358;-1.486;2023-04-03T00:59:06;4.97;;;2.10;;
54561;SDS011;40456;53.358;-1.486;2023-04-03T01:01:35;3.38;;;1.70;;
54561;SDS011;40456;53.358;-1.486;2023-04-03T01:04:00;3.47;;;2.00;;
54561;SDS011;40456;53.358;-1.486;2023-04-03T01:06:28;6.15;;;1.85;;
54561;SDS011;40456;53.358;-1.486;2023-04-03T01:08:56;3.50;;;1.60;;
54561;SDS011;40456;53.358;-1.486;2023-04-03T01:11:22;2.97;;;1.45;;
54561;SDS011;40456;53.358;-1.486;2023-04-03T01:13:53;2.63;;;1.48;;
54561;SDS011;40456;53.358;-1.486;2023-04-03T01:16:23;3.10;;;1.48;;
54561;SDS011;40456;53.358;-1.486;2023-04-03T01:18:48;3.28;;;1.63;;
54561;SDS011;40456;53.358;-1.486;2023-04-03T01:26:24;4.13;;;1.70;;
54561;SDS011;40456;53.358;-1.486;2023-04-03T01:28:50;2.50;;;1.60;;
54561;SDS011;40456;53.358;-1.486;2023-04-03T01:31:20;2.47;;;1.30;;
54561;SDS011;40456;53.358;-1.486;2023-04-03T01:33:48;3.42;;;1.48;;
54561;SDS011;40456;53.358;-1.486;2023-04-03T01:36:16;3.40;;;1.40;;
54561;SDS011;40456;53.358;-1.486;2023-04-03T01:38:46;2.35;;;1.35;;
54561;SDS011;40456;53.358;-1.486;2023-04-03T01:41:12;4.43;;;1.77;;
54561;SDS011;40456;53.358;-1.486;2023-04-03T01:43:37;4.70;;;1.83;;
54561;SDS011;40456;53.358;-1.486;2023-04-03T01:46:03;1.52;;;1.20;;
54561;SDS011;40456;53.358;-1.486;2023-04-03T01:48:28;3.40;;;1.75;;
54561;SDS011;40456;53.358;-1.486;2023-04-03T01:50:54;2.67;;;1.13;;
54561;SDS011;40456;53.358;-1.486;2023-04-03T01:53:19;2.53;;;1.42;;
54561;SDS011;40456;53.358;-1.486;2023-04-03T01:55:45;6.45;;;1.42;;
54561;SDS011;40456;53.358;-1.486;2023-04-03T01:58:10;3.00;;;1.35;;
54561;SDS011;40456;53.358;-1.486;2023-04-03T02:00:36;3.40;;;1.35;;
54561;SDS011;40456;53.358;-1.486;2023-04-03T02:03:01;2.15;;;1.30;;
54561;SDS011;40456;53.358;-1.486;2023-04-03T02:05:27;2.03;;;1.17;;
54561;SDS011;40456;53.358;-1.486;2023-04-03T02:07:53;2.00;;;1.05;;
54561;SDS011;40456;53.358;-1.486;2023-04-03T02:10:18;2.22;;;1.20;;
54561;SDS011;40456;53.358;-1.486;2023-04-03T02:12:43;1.98;;;1.10;;
54561;SDS011;40456;53.358;-1.486;2023-04-03T02:15:09;2.83;;;1.20;;
54561;SDS011;40456;53.358;-1.486;2023-04-03T02:17:35;4.50;;;1.30;;
54561;SDS011;40456;53.358;-1.486;2023-04-03T02:20:00;2.05;;;1.35;;
54561;SDS011;40456;53.358;-1.486;2023-04-03T02:22:26;2.88;;;1.33;;
54561;SDS011;40456;53.358;-1.486;2023-04-03T02:24:51;4.35;;;1.23;;
54561;SDS011;40456;53.358;-1.486;2023-04-03T02:27:17;4.05;;;1.52;;
54561;SDS011;40456;53.358;-1.486;2023-04-03T02:29:42;3.30;;;1.10;;
54561;SDS011;40456;53.358;-1.486;2023-04-03T02:32:08;5.70;;;1.67;;
54561;SDS011;40456;53.358;-1.486;2023-04-03T02:34:33;1.58;;;1.02;;
54561;SDS011;40456;53.358;-1.486;2023-04-03T02:36:59;2.42;;;1.30;;
54561;SDS011;40456;53.358;-1.486;2023-04-03T02:39:24;4.10;;;1.35;;
54561;SDS011;40456;53.358;-1.486;2023-04-03T02:41:51;3.70;;;1.13;;
54561;SDS011;40456;53.358;-1.486;2023-04-03T02:44:16;2.17;;;1.30;;
54561;SDS011;40456;53.358;-1.486;2023-04-03T02:46:42;1.65;;;1.25;;
54561;SDS011;40456;53.358;-1.486;2023-04-03T02:49:08;4.47;;;1.48;;
54561;SDS011;40456;53.358;-1.486;2023-04-03T02:51:33;2.88;;;1.20;;
54561;SDS011;40456;53.358;-1.486;2023-04-03T02:53:58;2.78;;;1.50;;
54561;SDS011;40456;53.358;-1.486;2023-04-03T02:56:24;2.47;;;1.17;;
54561;SDS011;40456;53.358;-1.486;2023-04-03T02:58:49;2.25;;;1.02;;
54561;SDS011;40456;53.358;-1.486;2023-04-03T03:01:15;1.83;;;1.00;;
54561;SDS011;40456;53.358;-1.486;2023-04-03T03:03:40;3.65;;;1.48;;
54561;SDS011;40456;53.358;-1.486;2023-04-03T03:06:13;1.85;;;0.98;;
54561;SDS011;40456;53.358;-1.486;2023-04-03T03:08:42;1.98;;;0.93;;
54561;SDS011;40456;53.358;-1.486;2023-04-03T03:11:08;2.42;;;1.05;;
54561;SDS011;40456;53.358;-1.486;2023-04-03T03:13:34;5.15;;;1.23;;
54561;SDS011;40456;53.358;-1.486;2023-04-03T03:16:00;2.60;;;1.13;;
54561;SDS011;40456;53.358;-1.486;2023-04-03T03:18:25;2.70;;;1.25;;
54561;SDS011;40456;53.358;-1.486;2023-04-03T03:20:55;3.83;;;1.25;;
54561;SDS011;40456;53.358;-1.486;2023-04-03T03:23:22;2.15;;;1.30;;
54561;SDS011;40456;53.358;-1.486;2023-04-03T03:25:49;2.85;;;1.45;;
54561;SDS011;40456;53.358;-1.486;2023-04-03T03:28:14;2.20;;;0.85;;
54561;SDS011;40456;53.358;-1.486;2023-04-03T03:30:40;4.00;;;0.90;;
54561;SDS011;40456;53.358;-1.486;2023-04-03T03:33:05;4.10;;;1.10;;
54561;SDS011;40456;53.358;-1.486;2023-04-03T03:35:30;1.70;;;1.00;;
54561;SDS011;40456;53.358;-1.486;2023-04-03T03:37:56;4.40;;;1.25;;
54561;SDS011;40456;53.358;-1.486;2023-04-03T03:40:21;2.00;;;1.10;;
54561;SDS011;40456;53.358;-1.486;2023-04-03T03:42:47;1.50;;;1.10;;
54561;SDS011;40456;53.358;-1.486;2023-04-03T03:45:12;2.47;;;0.88;;
54561;SDS011;40456;53.358;-1.486;2023-04-03T03:47:37;1.30;;;0.93;;
54561;SDS011;40456;53.358;-1.486;2023-04-03T03:50:03;1.92;;;0.80;;
54561;SDS011;40456;53.358;-1.486;2023-04-03T03:52:28;1.77;;;0.90;;
54561;SDS011;40456;53.358;-1.486;2023-04-03T03:54:55;3.00;;;1.25;;
54561;SDS011;40456;53.358;-1.486;2023-04-03T03:57:20;3.67;;;1.15;;
54561;SDS011;40456;53.358;-1.486;2023-04-03T03:59:46;1.73;;;0.80;;
54561;SDS011;40456;53.358;-1.486;2023-04-03T04:02:12;3.05;;;1.08;;
54561;SDS011;40456;53.358;-1.486;2023-04-03T04:04:37;1.65;;;1.05;;
54561;SDS011;40456;53.358;-1.486;2023-04-03T04:07:03;3.10;;;1.38;;
54561;SDS011;40456;53.358;-1.486;2023-04-03T04:09:28;1.50;;;0.90;;
54561;SDS011;40456;53.358;-1.486;2023-04-03T04:11:54;1.02;;;0.85;;
54561;SDS011;40456;53.358;-1.486;2023-04-03T04:14:20;3.03;;;1.20;;
54561;SDS011;40456;53.358;-1.486;2023-04-03T04:16:45;2.97;;;1.05;;
54561;SDS011;40456;53.358;-1.486;2023-04-03T04:19:11;3.35;;;1.15;;
54561;SDS011;40456;53.358;-1.486;2023-04-03T04:21:37;2.78;;;1.15;;
54561;SDS011;40456;53.358;-1.486;2023-04-03T04:24:04;1.52;;;0.90;;
54561;SDS011;40456;53.358;-1.486;2023-04-03T04:26:30;1.13;;;0.73;;
54561;SDS011;40456;53.358;-1.486;2023-04-03T04:28:55;1.77;;;0.80;;
54561;SDS011;40456;53.358;-1.486;2023-04-03T04:31:20;1.88;;;0.90;;
54561;SDS011;40456;53.358;-1.486;2023-04-03T04:33:46;3.05;;;0.75;;
54561;SDS011;40456;53.358;-1.486;2023-04-03T04:36:11;1.77;;;1.10;;
54561;SDS011;40456;53.358;-1.486;2023-04-03T04:38:37;1.40;;;0.90;;
54561;SDS011;40456;53.358;-1.486;2023-04-03T04:41:03;3.50;;;1.13;;
54561;SDS011;40456;53.358;-1.486;2023-04-03T04:43:29;2.25;;;1.00;;
54561;SDS011;40456;53.358;-1.486;2023-04-03T04:46:03;1.63;;;0.85;;
54561;SDS011;40456;53.358;-1.486;2023-04-03T04:48:32;1.63;;;0.75;;
54561;SDS011;40456;53.358;-1.486;2023-04-03T04:50:58;2.22;;;1.08;;
54561;SDS011;40456;53.358;-1.486;2023-04-03T04:53:23;2.42;;;1.02;;
54561;SDS011;40456;53.358;-1.486;2023-04-03T04:55:48;2.33;;;0.80;;
54561;SDS011;40456;53.358;-1.486;2023-04-03T04:58:14;2.85;;;0.82;;
54561;SDS011;40456;53.358;-1.486;2023-04-03T05:00:39;1.92;;;0.98;;
54561;SDS011;40456;53.358;-1.486;2023-04-03T05:03:05;1.65;;;0.90;;
54561;SDS011;40456;53.358;-1.486;2023-04-03T05:05:30;1.08;;;0.88;;
54561;SDS011;40456;53.358;-1.486;2023-04-03T05:07:55;1.70;;;1.10;;
54561;SDS011;40456;53.358;-1.486;2023-04-03T05:10:21;1.90;;;1.00;;
54561;SDS011;40456;53.358;-1.486;2023-04-03T05:12:46;1.30;;;0.68;;
54561;SDS011;40456;53.358;-1.486;2023-04-03T05:15:12;1.83;;;1.10;;
54561;SDS011;40456;53.358;-1.486;2023-04-03T05:17:37;0.77;;;0.73;;
54561;SDS011;40456;53.358;-1.486;2023-04-03T05:20:03;2.05;;;0.85;;
54561;SDS011;40456;53.358;-1.486;2023-04-03T05:22:29;2.05;;;0.73;;
54561;SDS011;40456;53.358;-1.486;2023-04-03T05:24:55;1.92;;;0.73;;
54561;SDS011;40456;53.358;-1.486;2023-04-03T05:27:21;1.17;;;0.80;;
54561;SDS011;40456;53.358;-1.486;2023-04-03T05:29:48;2.05;;;0.70;;
54561;SDS011;40456;53.358;-1.486;2023-04-03T05:32:13;2.00;;;0.90;;
54561;SDS011;40456;53.358;-1.486;2023-04-03T05:34:39;2.85;;;1.10;;
54561;SDS011;40456;53.358;-1.486;2023-04-03T05:37:05;2.40;;;1.17;;
54561;SDS011;40456;53.358;-1.486;2023-04-03T05:39:30;3.22;;;1.25;;
54561;SDS011;40456;53.358;-1.486;2023-04-03T05:41:56;1.83;;;0.77;;
54561;SDS011;40456;53.358;-1.486;2023-04-03T05:44:22;1.38;;;0.90;;
54561;SDS011;40456;53.358;-1.486;2023-04-03T05:46:47;1.45;;;0.80;;
54561;SDS011;40456;53.358;-1.486;2023-04-03T05:49:12;1.13;;;0.80;;
54561;SDS011;40456;53.358;-1.486;2023-04-03T05:51:38;4.43;;;0.95;;
54561;SDS011;40456;53.358;-1.486;2023-04-03T05:54:20;1.48;;;0.70;;
54561;SDS011;40456;53.358;-1.486;2023-04-03T05:56:50;1.55;;;1.00;;
54561;SDS011;40456;53.358;-1.486;2023-04-03T05:59:17;2.25;;;1.27;;
54561;SDS011;40456;53.358;-1.486;2023-04-03T06:01:42;2.00;;;0.98;;
54561;SDS011;40456;53.358;-1.486;2023-04-03T06:04:08;2.47;;;1.00;;
54561;SDS011;40456;53.358;-1.486;2023-04-03T06:06:50;0.90;;;0.60;;
54561;SDS011;40456;53.358;-1.486;2023-04-03T06:09:20;1.52;;;0.80;;
54561;SDS011;40456;53.358;-1.486;2023-04-03T06:11:47;1.60;;;0.80;;
54561;SDS011;40456;53.358;-1.486;2023-04-03T06:14:12;3.25;;;0.90;;
54561;SDS011;40456;53.358;-1.486;2023-04-03T06:16:38;2.58;;;0.90;;
54561;SDS011;40456;53.358;-1.486;2023-04-03T06:19:04;1.85;;;1.00;;
54561;SDS011;40456;53.358;-1.486;2023-04-03T06:21:31;2.40;;;0.80;;
54561;SDS011;40456;53.358;-1.486;2023-04-03T06:23:56;2.45;;;0.90;;
54561;SDS011;40456;53.358;-1.486;2023-04-03T06:26:22;1.83;;;0.88;;
54561;SDS011;40456;53.358;-1.486;2023-04-03T06:28:47;2.22;;;0.70;;
54561;SDS011;40456;53.358;-1.486;2023-04-03T06:31:13;0.90;;;0.80;;
54561;SDS011;40456;53.358;-1.486;2023-04-03T06:33:38;2.90;;;1.23;;
54561;SDS011;40456;53.358;-1.486;2023-04-03T06:36:04;2.75;;;1.20;;
54561;SDS011;40456;53.358;-1.486;2023-04-03T06:38:30;1.40;;;0.77;;
54561;SDS011;40456;53.358;-1.486;2023-04-03T06:40:56;2.20;;;0.95;;
54561;SDS011;40456;53.358;-1.486;2023-04-03T06:43:22;1.95;;;0.85;;
54561;SDS011;40456;53.358;-1.486;2023-04-03T06:45:47;1.90;;;1.02;;
54561;SDS011;40456;53.358;-1.486;2023-04-03T06:48:13;2.55;;;1.23;;
54561;SDS011;40456;53.358;-1.486;2023-04-03T06:50:38;2.80;;;0.93;;
54561;SDS011;40456;53.358;-1.486;2023-04-03T06:53:04;1.45;;;1.10;;
54561;SDS011;40456;53.358;-1.486;2023-04-03T06:55:29;1.63;;;1.00;;
54561;SDS011;40456;53.358;-1.486;2023-04-03T06:57:55;1.83;;;1.23;;
54561;SDS011;40456;53.358;-1.486;2023-04-03T07:00:20;3.03;;;1.27;;
54561;SDS011;40456;53.358;-1.486;2023-04-03T07:02:46;4.80;;;1.60;;
54561;SDS011;40456;53.358;-1.486;2023-04-03T07:05:11;5.30;;;1.67;;
54561;SDS011;40456;53.358;-1.486;2023-04-03T07:07:37;2.20;;;1.30;;
54561;SDS011;40456;53.358;-1.486;2023-04-03T07:10:03;3.00;;;1.30;;
54561;SDS011;40456;53.358;-1.486;2023-04-03T07:12:29;2.45;;;1.15;;
54561;SDS011;40456;53.358;-1.486;2023-04-03T07:14:55;2.58;;;1.17;;
54561;SDS011;40456;53.358;-1.486;2023-04-03T07:17:20;2.88;;;1.55;;
54561;SDS011;40456;53.358;-1.486;2023-04-03T07:19:45;3.08;;;1.27;;
54561;SDS011;40456;53.358;-1.486;2023-04-03T07:22:11;1.25;;;1.10;;
54561;SDS011;40456;53.358;-1.486;2023-04-03T07:24:37;2.80;;;1.42;;
54561;SDS011;40456;53.358;-1.486;2023-04-03T07:27:02;4.32;;;1.10;;
54561;SDS011;40456;53.358;-1.486;2023-04-03T07:29:28;2.30;;;1.27;;
54561;SDS011;40456;53.358;-1.486;2023-04-03T07:31:53;4.03;;;1.05;;
54561;SDS011;40456;53.358;-1.486;2023-04-03T07:34:20;3.00;;;1.20;;
54561;SDS011;40456;53.358;-1.486;2023-04-03T07:36:46;2.20;;;1.23;;
54561;SDS011;40456;53.358;-1.486;2023-04-03T07:39:11;2.35;;;1.13;;
54561;SDS011;40456;53.358;-1.486;2023-04-03T07:41:36;2.47;;;1.10;;
54561;SDS011;40456;53.358;-1.486;2023-04-03T07:44:02;2.28;;;1.00;;
54561;SDS011;40456;53.358;-1.486;2023-04-03T07:46:27;3.65;;;1.50;;
54561;SDS011;40456;53.358;-1.486;2023-04-03T07:48:53;2.67;;;1.30;;
54561;SDS011;40456;53.358;-1.486;2023-04-03T07:51:18;3.33;;;0.90;;
54561;SDS011;40456;53.358;-1.486;2023-04-03T07:53:44;2.75;;;1.17;;
54561;SDS011;40456;53.358;-1.486;2023-04-03T07:56:10;3.50;;;1.10;;
54561;SDS011;40456;53.358;-1.486;2023-04-03T07:58:35;2.00;;;1.00;;
54561;SDS011;40456;53.358;-1.486;2023-04-03T08:01:01;5.90;;;1.88;;
54561;SDS011;40456;53.358;-1.486;2023-04-03T08:03:27;1.67;;;1.10;;
54561;SDS011;40456;53.358;-1.486;2023-04-03T08:05:52;5.25;;;1.23;;
54561;SDS011;40456;53.358;-1.486;2023-04-03T08:08:20;3.22;;;1.35;;
54561;SDS011;40456;53.358;-1.486;2023-04-03T08:10:53;2.83;;;1.33;;
54561;SDS011;40456;53.358;-1.486;2023-04-03T08:13:19;4.53;;;1.20;;
54561;SDS011;40456;53.358;-1.486;2023-04-03T08:15:45;4.25;;;1.10;;
54561;SDS011;40456;53.358;-1.486;2023-04-03T08:18:11;2.80;;;1.35;;
54561;SDS011;40456;53.358;-1.486;2023-04-03T08:20:37;3.95;;;1.45;;
54561;SDS011;40456;53.358;-1.486;2023-04-03T08:23:03;2.53;;;1.40;;
54561;SDS011;40456;53.358;-1.486;2023-04-03T08:25:29;7.78;;;2.33;;
54561;SDS011;40456;53.358;-1.486;2023-04-03T08:27:54;3.72;;;1.73;;
54561;SDS011;40456;53.358;-1.486;2023-04-03T08:30:20;2.65;;;1.65;;
54561;SDS011;40456;53.358;-1.486;2023-04-03T08:32:45;3.33;;;1.73;;
54561;SDS011;40456;53.358;-1.486;2023-04-03T08:35:11;8.25;;;1.35;;
54561;SDS011;40456;53.358;-1.486;2023-04-03T08:37:37;1.52;;;1.00;;
54561;SDS011;40456;53.358;-1.486;2023-04-03T08:40:07;3.45;;;1.38;;
54561;SDS011;40456;53.358;-1.486;2023-04-03T08:42:40;2.22;;;1.10;;
54561;SDS011;40456;53.358;-1.486;2023-04-03T08:45:35;4.32;;;1.20;;
54561;SDS011;40456;53.358;-1.486;2023-04-03T08:48:04;3.65;;;0.93;;
54561;SDS011;40456;53.358;-1.486;2023-04-03T08:50:36;2.85;;;0.80;;
54561;SDS011;40456;53.358;-1.486;2023-04-03T08:53:03;4.28;;;0.90;;
54561;SDS011;40456;53.358;-1.486;2023-04-03T08:55:37;2.88;;;1.08;;
54561;SDS011;40456;53.358;-1.486;2023-04-03T09:00:48;5.15;;;0.93;;
54561;SDS011;40456;53.358;-1.486;2023-04-03T09:03:17;3.22;;;0.90;;
54561;SDS011;40456;53.358;-1.486;2023-04-03T09:08:21;5.93;;;1.20;;
54561;SDS011;40456;53.358;-1.486;2023-04-03T09:11:08;6.18;;;1.27;;
54561;SDS011;40456;53.358;-1.486;2023-04-03T09:21:39;5.18;;;1.13;;
54561;SDS011;40456;53.358;-1.486;2023-04-03T09:24:09;7.80;;;0.90;;
54561;SDS011;40456;53.358;-1.486;2023-04-03T09:26:37;5.13;;;0.85;;
54561;SDS011;40456;53.358;-1.486;2023-04-03T09:29:10;6.25;;;1.40;;
54561;SDS011;40456;53.358;-1.486;2023-04-03T09:31:40;4.95;;;1.00;;
54561;SDS011;40456;53.358;-1.486;2023-04-03T09:34:41;3.40;;;1.02;;
54561;SDS011;40456;53.358;-1.486;2023-04-03T09:37:03;2.28;;;0.80;;
54561;SDS011;40456;53.358;-1.486;2023-04-03T09:39:52;4.35;;;0.88;;
54561;SDS011;40456;53.358;-1.486;2023-04-03T09:42:20;2.08;;;0.52;;
54561;SDS011;40456;53.358;-1.486;2023-04-03T09:45:00;1.70;;;0.70;;
54561;SDS011;40456;53.358;-1.486;2023-04-03T09:47:31;2.28;;;0.65;;
54561;SDS011;40456;53.358;-1.486;2023-04-03T09:52:44;3.00;;;1.08;;
54561;SDS011;40456;53.358;-1.486;2023-04-03T09:55:15;1.60;;;0.68;;
54561;SDS011;40456;53.358;-1.486;2023-04-03T09:57:57;2.60;;;0.83;;
54561;SDS011;40456;53.358;-1.486;2023-04-03T10:00:33;13.45;;;1.65;;
54561;SDS011;40456;53.358;-1.486;2023-04-03T10:03:00;3.97;;;0.60;;
54561;SDS011;40456;53.358;-1.486;2023-04-03T10:05:28;8.00;;;0.98;;
54561;SDS011;40456;53.358;-1.486;2023-04-03T10:10:42;3.97;;;0.98;;
54561;SDS011;40456;53.358;-1.486;2023-04-03T10:15:39;5.30;;;0.82;;
54561;SDS011;40456;53.358;-1.486;2023-04-03T10:18:20;2.30;;;0.45;;
54561;SDS011;40456;53.358;-1.486;2023-04-03T10:20:54;5.25;;;1.05;;
54561;SDS011;40456;53.358;-1.486;2023-04-03T10:23:28;3.88;;;1.13;;
54561;SDS011;40456;53.358;-1.486;2023-04-03T10:26:20;5.07;;;0.90;;
54561;SDS011;40456;53.358;-1.486;2023-04-03T10:31:46;5.80;;;0.80;;
54561;SDS011;40456;53.358;-1.486;2023-04-03T10:34:28;5.43;;;1.00;;
54561;SDS011;40456;53.358;-1.486;2023-04-03T10:37:57;5.57;;;0.90;;
54561;SDS011;40456;53.358;-1.486;2023-04-03T10:48:25;2.08;;;0.70;;
54561;SDS011;40456;53.358;-1.486;2023-04-03T10:53:51;4.93;;;1.05;;
54561;SDS011;40456;53.358;-1.486;2023-04-03T10:56:36;3.85;;;0.70;;
54561;SDS011;40456;53.358;-1.486;2023-04-03T11:04:42;3.38;;;1.20;;
54561;SDS011;40456;53.358;-1.486;2023-04-03T11:07:26;3.22;;;1.23;;
54561;SDS011;40456;53.358;-1.486;2023-04-03T11:09:53;3.75;;;1.30;;
54561;SDS011;40456;53.358;-1.486;2023-04-03T11:12:26;2.05;;;1.10;;
54561;SDS011;40456;53.358;-1.486;2023-04-03T11:14:56;3.13;;;1.45;;
54561;SDS011;40456;53.358;-1.486;2023-04-03T11:17:26;3.55;;;1.38;;
54561;SDS011;40456;53.358;-1.486;2023-04-03T11:20:16;5.85;;;1.27;;
54561;SDS011;40456;53.358;-1.486;2023-04-03T11:25:23;5.65;;;1.30;;
54561;SDS011;40456;53.358;-1.486;2023-04-03T11:28:06;6.20;;;1.50;;
54561;SDS011;40456;53.358;-1.486;2023-04-03T11:36:19;18.60;;;2.80;;
54561;SDS011;40456;53.358;-1.486;2023-04-03T11:38:48;15.38;;;2.75;;
54561;SDS011;40456;53.358;-1.486;2023-04-03T11:41:16;24.83;;;3.13;;
54561;SDS011;40456;53.358;-1.486;2023-04-03T11:43:42;16.55;;;3.80;;
54561;SDS011;40456;53.358;-1.486;2023-04-03T11:46:22;21.02;;;3.03;;
54561;SDS011;40456;53.358;-1.486;2023-04-03T11:48:48;16.23;;;2.72;;
54561;SDS011;40456;53.358;-1.486;2023-04-03T11:53:41;12.05;;;2.80;;
54561;SDS011;40456;53.358;-1.486;2023-04-03T12:01:54;14.90;;;2.30;;
54561;SDS011;40456;53.358;-1.486;2023-04-03T12:04:22;4.57;;;1.65;;
54561;SDS011;40456;53.358;-1.486;2023-04-03T12:06:50;13.85;;;2.10;;
54561;SDS011;40456;53.358;-1.486;2023-04-03T12:09:28;5.75;;;1.70;;
54561;SDS011;40456;53.358;-1.486;2023-04-03T12:11:59;9.63;;;1.80;;
54561;SDS011;40456;53.358;-1.486;2023-04-03T12:14:27;3.67;;;1.02;;
54561;SDS011;40456;53.358;-1.486;2023-04-03T12:16:53;8.00;;;1.30;;
54561;SDS011;40456;53.358;-1.486;2023-04-03T12:19:38;4.72;;;1.55;;
54561;SDS011;40456;53.358;-1.486;2023-04-03T12:22:13;6.20;;;1.00;;
54561;SDS011;40456;53.358;-1.486;2023-04-03T12:24:45;12.50;;;2.03;;
54561;SDS011;40456;53.358;-1.486;2023-04-03T12:29:50;8.02;;;1.38;;
54561;SDS011;40456;53.358;-1.486;2023-04-03T12:47:24;10.07;;;1.60;;
54561;SDS011;40456;53.358;-1.486;2023-04-03T12:49:53;6.10;;;1.88;;
54561;SDS011;40456;53.358;-1.486;2023-04-03T12:52:35;5.55;;;1.00;;
54561;SDS011;40456;53.358;-1.486;2023-04-03T12:55:03;7.95;;;1.55;;
54561;SDS011;40456;53.358;-1.486;2023-04-03T12:57:35;5.38;;;1.38;;
54561;SDS011;40456;53.358;-1.486;2023-04-03T13:00:18;2.72;;;1.27;;
54561;SDS011;40456;53.358;-1.486;2023-04-03T13:02:44;4.57;;;1.23;;
54561;SDS011;40456;53.358;-1.486;2023-04-03T13:05:14;6.53;;;1.35;;
54561;SDS011;40456;53.358;-1.486;2023-04-03T13:07:41;3.58;;;1.25;;
54561;SDS011;40456;53.358;-1.486;2023-04-03T13:12:34;5.18;;;1.02;;
54561;SDS011;40456;53.358;-1.486;2023-04-03T13:15:02;2.95;;;1.17;;
54561;SDS011;40456;53.358;-1.486;2023-04-03T13:17:41;5.28;;;1.33;;
54561;SDS011;40456;53.358;-1.486;2023-04-03T13:20:26;4.07;;;1.25;;
54561;SDS011;40456;53.358;-1.486;2023-04-03T13:22:53;5.43;;;1.38;;
54561;SDS011;40456;53.358;-1.486;2023-04-03T13:25:26;9.90;;;1.70;;
54561;SDS011;40456;53.358;-1.486;2023-04-03T13:27:54;4.47;;;1.40;;
54561;SDS011;40456;53.358;-1.486;2023-04-03T13:30:21;7.93;;;1.60;;
54561;SDS011;40456;53.358;-1.486;2023-04-03T13:32:50;9.52;;;2.00;;
54561;SDS011;40456;53.358;-1.486;2023-04-03T13:38:04;6.75;;;1.60;;
54561;SDS011;40456;53.358;-1.486;2023-04-03T13:40:32;13.68;;;1.40;;
54561;SDS011;40456;53.358;-1.486;2023-04-03T13:42:59;8.60;;;1.55;;
54561;SDS011;40456;53.358;-1.486;2023-04-03T13:45:26;8.27;;;1.67;;
54561;SDS011;40456;53.358;-1.486;2023-04-03T13:48:07;5.05;;;1.02;;
54561;SDS011;40456;53.358;-1.486;2023-04-03T13:53:29;7.75;;;1.45;;
54561;SDS011;40456;53.358;-1.486;2023-04-03T13:56:39;7.07;;;1.58;;
54561;SDS011;40456;53.358;-1.486;2023-04-03T13:58:53;8.98;;;1.85;;
54561;SDS011;40456;53.358;-1.486;2023-04-03T14:01:20;13.95;;;1.50;;
54561;SDS011;40456;53.358;-1.486;2023-04-03T14:03:52;11.23;;;1.83;;
54561;SDS011;40456;53.358;-1.486;2023-04-03T14:06:19;9.48;;;1.48;;
54561;SDS011;40456;53.358;-1.486;2023-04-03T14:08:45;4.50;;;1.33;;
54561;SDS011;40456;53.358;-1.486;2023-04-03T14:11:16;10.02;;;1.95;;
54561;SDS011;40456;53.358;-1.486;2023-04-03T14:13:43;7.88;;;1.67;;
54561;SDS011;40456;53.358;-1.486;2023-04-03T14:16:14;11.68;;;1.60;;
54561;SDS011;40456;53.358;-1.486;2023-04-03T14:18:41;8.02;;;1.65;;
54561;SDS011;40456;53.358;-1.486;2023-04-03T14:21:08;5.07;;;1.50;;
54561;SDS011;40456;53.358;-1.486;2023-04-03T14:23:36;5.05;;;1.45;;
54561;SDS011;40456;53.358;-1.486;2023-04-03T14:26:01;4.22;;;1.38;;
54561;SDS011;40456;53.358;-1.486;2023-04-03T14:28:27;8.07;;;1.55;;
54561;SDS011;40456;53.358;-1.486;2023-04-03T14:30:52;7.43;;;1.40;;
54561;SDS011;40456;53.358;-1.486;2023-04-03T14:33:20;6.38;;;1.20;;
54561;SDS011;40456;53.358;-1.486;2023-04-03T14:35:48;7.22;;;1.17;;
54561;SDS011;40456;53.358;-1.486;2023-04-03T14:38:25;4.80;;;1.40;;
54561;SDS011;40456;53.358;-1.486;2023-04-03T14:40:58;2.95;;;1.17;;
54561;SDS011;40456;53.358;-1.486;2023-04-03T14:43:24;5.00;;;1.20;;
54561;SDS011;40456;53.358;-1.486;2023-04-03T14:45:50;3.80;;;0.90;;
54561;SDS011;40456;53.358;-1.486;2023-04-03T14:48:23;5.10;;;1.45;;
54561;SDS011;40456;53.358;-1.486;2023-04-03T14:50:50;6.45;;;2.35;;
54561;SDS011;40456;53.358;-1.486;2023-04-03T14:53:17;9.00;;;1.90;;
54561;SDS011;40456;53.358;-1.486;2023-04-03T14:55:47;9.80;;;2.03;;
54561;SDS011;40456;53.358;-1.486;2023-04-03T14:58:16;11.23;;;2.08;;
54561;SDS011;40456;53.358;-1.486;2023-04-03T15:00:45;15.55;;;2.45;;
54561;SDS011;40456;53.358;-1.486;2023-04-03T15:03:18;5.35;;;1.90;;
54561;SDS011;40456;53.358;-1.486;2023-04-03T15:05:45;7.07;;;1.88;;
54561;SDS011;40456;53.358;-1.486;2023-04-03T15:08:19;9.95;;;1.92;;
54561;SDS011;40456;53.358;-1.486;2023-04-03T15:10:48;7.28;;;1.60;;
54561;SDS011;40456;53.358;-1.486;2023-04-03T15:13:14;4.38;;;1.50;;
54561;SDS011;40456;53.358;-1.486;2023-04-03T15:15:40;8.27;;;1.20;;
54561;SDS011;40456;53.358;-1.486;2023-04-03T15:18:06;6.25;;;1.30;;
54561;SDS011;40456;53.358;-1.486;2023-04-03T15:20:34;5.35;;;1.52;;
54561;SDS011;40456;53.358;-1.486;2023-04-03T15:23:00;5.53;;;1.13;;
54561;SDS011;40456;53.358;-1.486;2023-04-03T15:25:26;7.82;;;1.50;;
54561;SDS011;40456;53.358;-1.486;2023-04-03T15:27:52;5.80;;;1.17;;
54561;SDS011;40456;53.358;-1.486;2023-04-03T15:30:19;5.35;;;1.08;;
54561;SDS011;40456;53.358;-1.486;2023-04-03T15:32:45;4.82;;;1.27;;
54561;SDS011;40456;53.358;-1.486;2023-04-03T15:35:11;3.42;;;1.05;;
54561;SDS011;40456;53.358;-1.486;2023-04-03T15:37:36;7.40;;;1.20;;
54561;SDS011;40456;53.358;-1.486;2023-04-03T15:40:03;4.93;;;1.60;;
54561;SDS011;40456;53.358;-1.486;2023-04-03T15:42:29;6.95;;;1.67;;
54561;SDS011;40456;53.358;-1.486;2023-04-03T15:44:55;5.32;;;1.88;;
54561;SDS011;40456;53.358;-1.486;2023-04-03T15:47:20;6.18;;;1.63;;
54561;SDS011;40456;53.358;-1.486;2023-04-03T15:49:45;9.05;;;1.83;;
54561;SDS011;40456;53.358;-1.486;2023-04-03T15:52:11;5.10;;;1.95;;
54561;SDS011;40456;53.358;-1.486;2023-04-03T15:54:36;6.03;;;2.50;;
54561;SDS011;40456;53.358;-1.486;2023-04-03T15:57:02;6.20;;;1.88;;
54561;SDS011;40456;53.358;-1.486;2023-04-03T15:59:27;5.95;;;2.33;;
54561;SDS011;40456;53.358;-1.486;2023-04-03T16:01:55;7.60;;;2.55;;
54561;SDS011;40456;53.358;-1.486;2023-04-03T16:04:21;6.50;;;2.33;;
54561;SDS011;40456;53.358;-1.486;2023-04-03T16:06:46;9.30;;;3.22;;
54561;SDS011;40456;53.358;-1.486;2023-04-03T16:09:13;6.97;;;3.72;;